Chon Buri, Thailand
Current Conditions -  °F | °C
As of 6:00 PM on Friday 19 Dec 2014 (Local Time) from VTBS Reporting Station
Broken Clouds Broken Clouds  
Wind Chill: 81°   Ceiling: 30000
Heat Index: 81°   Visibility: 6mi
Dew Point: 59°   Wind: 3mph
Humidity: 48%   Direction: 80°E
Pressure: 29.94"   Gusts: NA
Location:  13.4°N, 101°E
Report Text: VTBS 191100Z 08003KT 050V110 9999 FEW030 BKN300 27/15 Q1014 NOSIG
Loading
Personal Weather Stations






























Interactive Weather Map New forecast layout! Learn more

10-Day Weather Forecast

Advertisements
Track Severe Weather on mobile